Terminal Aerodrome Forecast
Issued by NWS

Home | Current Version | Previous Version | Graphics & Text | Print | Product List | Glossary On
Versions: 1 2 3 4 5 6 7 8 9 10 11 12 13 14 15 16 17
000
FTUS43 KICT 231545 AAB
TAFCNU
TAF AMD
KCNU 231545Z 2316/2412 01013G22KT P6SM VCTS SCT025 BKN070CB
      TEMPO 2316/2320 5SM -TSRA OVC050CB
     FM232300 35009KT P6SM BKN100
     FM240300 35006KT P6SM SKC=

USA.gov is the U.S. government's official web portal to all federal, state and local government web resources and services.